sensor_id;sensor_type;location;lat;lon;timestamp;pressure;altitude;pressure_sealevel;temperature;humidity
80184;BME280;69682;52.138;5.440;2023-08-21T00:00:41;102392.25;;;19.11;75.30
80184;BME280;69682;52.138;5.440;2023-08-21T00:03:08;102392.41;;;19.10;74.97
80184;BME280;69682;52.138;5.440;2023-08-21T00:05:35;102396.97;;;19.09;74.87
80184;BME280;69682;52.138;5.440;2023-08-21T00:08:01;102396.81;;;19.11;74.72
80184;BME280;69682;52.138;5.440;2023-08-21T00:10:29;102396.69;;;19.12;74.95
80184;BME280;69682;52.138;5.440;2023-08-21T00:12:56;102404.19;;;19.09;75.26
80184;BME280;69682;52.138;5.440;2023-08-21T00:15:22;102400.91;;;19.05;75.08
80184;BME280;69682;52.138;5.440;2023-08-21T00:17:49;102405.56;;;19.03;75.16
80184;BME280;69682;52.138;5.440;2023-08-21T00:20:16;102402.00;;;19.02;75.52
80184;BME280;69682;52.138;5.440;2023-08-21T00:22:42;102396.88;;;18.99;75.49
80184;BME280;69682;52.138;5.440;2023-08-21T00:25:09;102400.00;;;18.95;75.18
80184;BME280;69682;52.138;5.440;2023-08-21T00:27:35;102400.97;;;18.94;75.42
80184;BME280;69682;52.138;5.440;2023-08-21T00:30:02;102398.97;;;18.86;75.72
80184;BME280;69682;52.138;5.440;2023-08-21T00:32:29;102399.94;;;18.85;75.88
80184;BME280;69682;52.138;5.440;2023-08-21T00:34:55;102398.22;;;18.84;75.72
80184;BME280;69682;52.138;5.440;2023-08-21T00:37:22;102396.78;;;18.80;76.03
80184;BME280;69682;52.138;5.440;2023-08-21T00:39:49;102392.09;;;18.82;75.88
80184;BME280;69682;52.138;5.440;2023-08-21T00:42:15;102402.03;;;18.81;75.94
80184;BME280;69682;52.138;5.440;2023-08-21T00:44:42;102392.34;;;18.79;75.74
80184;BME280;69682;52.138;5.440;2023-08-21T00:47:08;102389.66;;;18.79;76.35
80184;BME280;69682;52.138;5.440;2023-08-21T00:49:35;102393.47;;;18.76;76.24
80184;BME280;69682;52.138;5.440;2023-08-21T00:52:02;102388.34;;;18.73;76.49
80184;BME280;69682;52.138;5.440;2023-08-21T00:54:29;102391.03;;;18.73;76.28
80184;BME280;69682;52.138;5.440;2023-08-21T00:56:56;102389.06;;;18.75;76.43
80184;BME280;69682;52.138;5.440;2023-08-21T00:59:23;102387.47;;;18.73;76.33
80184;BME280;69682;52.138;5.440;2023-08-21T01:01:49;102385.69;;;18.62;76.60
80184;BME280;69682;52.138;5.440;2023-08-21T01:04:16;102381.94;;;18.53;77.19
80184;BME280;69682;52.138;5.440;2023-08-21T01:06:43;102383.50;;;18.56;76.93
80184;BME280;69682;52.138;5.440;2023-08-21T01:09:21;102380.94;;;18.54;77.14
80184;BME280;69682;52.138;5.440;2023-08-21T01:11:56;102375.03;;;18.60;76.82
80184;BME280;69682;52.138;5.440;2023-08-21T01:14:39;102383.13;;;18.60;76.81
80184;BME280;69682;52.138;5.440;2023-08-21T01:17:10;102381.41;;;18.59;76.88
80184;BME280;69682;52.138;5.440;2023-08-21T01:19:46;102380.56;;;18.59;76.99
80184;BME280;69682;52.138;5.440;2023-08-21T01:22:14;102382.28;;;18.60;76.90
80184;BME280;69682;52.138;5.440;2023-08-21T01:24:40;102385.09;;;18.58;76.58
80184;BME280;69682;52.138;5.440;2023-08-21T01:27:08;102384.97;;;18.60;77.18
80184;BME280;69682;52.138;5.440;2023-08-21T01:29:38;102383.72;;;18.64;77.10
80184;BME280;69682;52.138;5.440;2023-08-21T01:32:14;102383.72;;;18.64;76.96
80184;BME280;69682;52.138;5.440;2023-08-21T01:34:46;102388.25;;;18.64;76.69
80184;BME280;69682;52.138;5.440;2023-08-21T01:37:13;102385.97;;;18.59;77.25
80184;BME280;69682;52.138;5.440;2023-08-21T01:39:40;102385.81;;;18.60;77.29
80184;BME280;69682;52.138;5.440;2023-08-21T01:42:07;102385.81;;;18.60;77.12
80184;BME280;69682;52.138;5.440;2023-08-21T01:44:33;102389.94;;;18.65;77.35
80184;BME280;69682;52.138;5.440;2023-08-21T01:47:00;102383.13;;;18.60;76.96
80184;BME280;69682;52.138;5.440;2023-08-21T01:49:26;102387.34;;;18.53;77.16
80184;BME280;69682;52.138;5.440;2023-08-21T01:51:53;102392.06;;;18.40;77.75
80184;BME280;69682;52.138;5.440;2023-08-21T01:54:20;102387.66;;;18.39;77.94
80184;BME280;69682;52.138;5.440;2023-08-21T01:56:46;102391.28;;;18.49;78.15
80184;BME280;69682;52.138;5.440;2023-08-21T01:59:13;102391.75;;;18.54;78.00
80184;BME280;69682;52.138;5.440;2023-08-21T02:01:39;102391.59;;;18.56;77.96
80184;BME280;69682;52.138;5.440;2023-08-21T02:04:06;102387.19;;;18.55;77.92
80184;BME280;69682;52.138;5.440;2023-08-21T02:06:32;102398.16;;;18.53;77.97
80184;BME280;69682;52.138;5.440;2023-08-21T02:08:59;102391.00;;;18.52;77.98
80184;BME280;69682;52.138;5.440;2023-08-21T02:11:25;102391.88;;;18.53;78.05
80184;BME280;69682;52.138;5.440;2023-08-21T02:13:52;102389.44;;;18.50;77.95
80184;BME280;69682;52.138;5.440;2023-08-21T02:16:19;102388.00;;;18.46;77.78
80184;BME280;69682;52.138;5.440;2023-08-21T02:18:46;102379.78;;;18.47;78.17
80184;BME280;69682;52.138;5.440;2023-08-21T02:21:13;102381.59;;;18.47;78.22
80184;BME280;69682;52.138;5.440;2023-08-21T02:23:39;102393.13;;;18.49;78.08
80184;BME280;69682;52.138;5.440;2023-08-21T02:26:06;102386.56;;;18.42;78.11
80184;BME280;69682;52.138;5.440;2023-08-21T02:28:33;102392.91;;;18.41;78.12
80184;BME280;69682;52.138;5.440;2023-08-21T02:30:59;102390.34;;;18.39;78.05
80184;BME280;69682;52.138;5.440;2023-08-21T02:33:26;102385.94;;;18.38;78.14
80184;BME280;69682;52.138;5.440;2023-08-21T02:35:52;102387.06;;;18.35;77.99
80184;BME280;69682;52.138;5.440;2023-08-21T02:38:19;102387.44;;;18.31;78.26
80184;BME280;69682;52.138;5.440;2023-08-21T02:40:46;102387.56;;;18.29;78.25
80184;BME280;69682;52.138;5.440;2023-08-21T02:43:14;102392.03;;;18.19;77.62
80184;BME280;69682;52.138;5.440;2023-08-21T02:45:40;102391.94;;;18.21;78.57
80184;BME280;69682;52.138;5.440;2023-08-21T02:48:07;102395.84;;;18.16;78.59
80184;BME280;69682;52.138;5.440;2023-08-21T02:50:34;102397.69;;;18.16;78.89
80184;BME280;69682;52.138;5.440;2023-08-21T02:53:01;102397.91;;;18.24;79.21
80184;BME280;69682;52.138;5.440;2023-08-21T02:55:27;102394.81;;;18.29;78.75
80184;BME280;69682;52.138;5.440;2023-08-21T02:57:54;102393.09;;;18.28;79.02
80184;BME280;69682;52.138;5.440;2023-08-21T03:00:20;102398.34;;;18.29;78.94
80184;BME280;69682;52.138;5.440;2023-08-21T03:02:47;102392.00;;;18.30;78.66
80184;BME280;69682;52.138;5.440;2023-08-21T03:05:13;102387.44;;;18.31;78.64
80184;BME280;69682;52.138;5.440;2023-08-21T03:07:41;102396.66;;;18.28;78.84
80184;BME280;69682;52.138;5.440;2023-08-21T03:10:08;102402.19;;;18.27;78.35
80184;BME280;69682;52.138;5.440;2023-08-21T03:12:35;102396.44;;;18.20;78.61
80184;BME280;69682;52.138;5.440;2023-08-21T03:15:02;102391.19;;;18.19;78.84
80184;BME280;69682;52.138;5.440;2023-08-21T03:17:29;102395.00;;;18.16;79.07
80184;BME280;69682;52.138;5.440;2023-08-21T03:19:56;102394.72;;;18.19;79.22
80184;BME280;69682;52.138;5.440;2023-08-21T03:22:22;102386.63;;;18.19;79.27
80184;BME280;69682;52.138;5.440;2023-08-21T03:24:49;102391.78;;;18.22;79.01
80184;BME280;69682;52.138;5.440;2023-08-21T03:27:16;102389.81;;;18.24;79.19
80184;BME280;69682;52.138;5.440;2023-08-21T03:29:43;102393.38;;;18.25;79.22
80184;BME280;69682;52.138;5.440;2023-08-21T03:32:18;102391.94;;;18.21;78.87
80184;BME280;69682;52.138;5.440;2023-08-21T03:34:44;102388.75;;;18.15;78.88
80184;BME280;69682;52.138;5.440;2023-08-21T03:37:11;102391.94;;;18.21;79.19
80184;BME280;69682;52.138;5.440;2023-08-21T03:39:38;102390.66;;;18.25;79.28
80184;BME280;69682;52.138;5.440;2023-08-21T03:42:05;102384.78;;;18.20;78.94
80184;BME280;69682;52.138;5.440;2023-08-21T03:44:32;102379.06;;;18.13;79.00
80184;BME280;69682;52.138;5.440;2023-08-21T03:46:59;102380.06;;;18.12;78.83
80184;BME280;69682;52.138;5.440;2023-08-21T03:49:26;102375.78;;;18.09;79.55
80184;BME280;69682;52.138;5.440;2023-08-21T03:51:53;102370.97;;;18.13;79.74
80184;BME280;69682;52.138;5.440;2023-08-21T03:54:19;102380.66;;;18.15;79.62
80184;BME280;69682;52.138;5.440;2023-08-21T03:56:46;102378.72;;;18.06;79.87
80184;BME280;69682;52.138;5.440;2023-08-21T03:59:12;102370.91;;;18.03;79.91
80184;BME280;69682;52.138;5.440;2023-08-21T04:01:39;102380.25;;;17.88;80.46
80184;BME280;69682;52.138;5.440;2023-08-21T04:04:05;102384.06;;;17.85;80.57
80184;BME280;69682;52.138;5.440;2023-08-21T04:06:32;102377.69;;;17.86;80.53
80184;BME280;69682;52.138;5.440;2023-08-21T04:08:59;102376.31;;;17.92;80.58
80184;BME280;69682;52.138;5.440;2023-08-21T04:11:25;102378.38;;;18.00;80.46
80184;BME280;69682;52.138;5.440;2023-08-21T04:13:52;102383.50;;;18.03;80.39
80184;BME280;69682;52.138;5.440;2023-08-21T04:16:18;102389.53;;;18.06;80.39
80184;BME280;69682;52.138;5.440;2023-08-21T04:18:47;102393.81;;;18.09;80.00
80184;BME280;69682;52.138;5.440;2023-08-21T04:21:14;102393.66;;;18.10;80.11
80184;BME280;69682;52.138;5.440;2023-08-21T04:23:41;102398.22;;;18.10;80.27
80184;BME280;69682;52.138;5.440;2023-08-21T04:26:07;102395.75;;;18.07;79.96
80184;BME280;69682;52.138;5.440;2023-08-21T04:28:35;102397.03;;;17.91;80.39
80184;BME280;69682;52.138;5.440;2023-08-21T04:31:05;102395.56;;;17.76;81.32
80184;BME280;69682;52.138;5.440;2023-08-21T04:33:31;102399.03;;;17.78;81.22
80184;BME280;69682;52.138;5.440;2023-08-21T04:35:58;102396.66;;;17.85;80.61
80184;BME280;69682;52.138;5.440;2023-08-21T04:38:25;102396.91;;;17.93;80.75
80184;BME280;69682;52.138;5.440;2023-08-21T04:40:52;102395.91;;;17.94;81.03
80184;BME280;69682;52.138;5.440;2023-08-21T04:43:19;102390.66;;;17.92;80.65
80184;BME280;69682;52.138;5.440;2023-08-21T04:45:49;102390.66;;;17.92;81.21
80184;BME280;69682;52.138;5.440;2023-08-21T04:48:17;102397.78;;;17.82;80.60
80184;BME280;69682;52.138;5.440;2023-08-21T04:50:44;102394.84;;;17.63;81.34
80184;BME280;69682;52.138;5.440;2023-08-21T04:53:11;102399.50;;;17.61;81.94
80184;BME280;69682;52.138;5.440;2023-08-21T04:55:39;102398.56;;;17.62;81.35
80184;BME280;69682;52.138;5.440;2023-08-21T04:58:07;102403.53;;;17.66;81.39
80184;BME280;69682;52.138;5.440;2023-08-21T05:00:34;102407.34;;;17.75;81.38
80184;BME280;69682;52.138;5.440;2023-08-21T05:03:01;102406.84;;;17.81;81.22
80184;BME280;69682;52.138;5.440;2023-08-21T05:05:27;102408.34;;;17.85;80.91
80184;BME280;69682;52.138;5.440;2023-08-21T05:07:54;102408.34;;;17.85;81.07
80184;BME280;69682;52.138;5.440;2023-08-21T05:10:20;102407.59;;;17.83;81.03
80184;BME280;69682;52.138;5.440;2023-08-21T05:12:47;102418.84;;;17.77;80.72
80184;BME280;69682;52.138;5.440;2023-08-21T05:15:14;102418.25;;;17.74;80.95
80184;BME280;69682;52.138;5.440;2023-08-21T05:17:41;102415.66;;;17.72;80.83
80184;BME280;69682;52.138;5.440;2023-08-21T05:20:08;102430.16;;;17.71;80.95
80184;BME280;69682;52.138;5.440;2023-08-21T05:22:35;102428.28;;;17.71;81.43
80184;BME280;69682;52.138;5.440;2023-08-21T05:25:02;102431.59;;;17.75;81.20
80184;BME280;69682;52.138;5.440;2023-08-21T05:27:29;102421.66;;;17.76;80.64
80184;BME280;69682;52.138;5.440;2023-08-21T05:29:55;102428.16;;;17.73;81.03
80184;BME280;69682;52.138;5.440;2023-08-21T05:32:21;102422.75;;;17.73;81.44
80184;BME280;69682;52.138;5.440;2023-08-21T05:34:48;102424.34;;;17.76;81.37
80184;BME280;69682;52.138;5.440;2023-08-21T05:37:15;102418.00;;;17.77;81.49
80184;BME280;69682;52.138;5.440;2023-08-21T05:39:42;102418.63;;;17.80;81.30
80184;BME280;69682;52.138;5.440;2023-08-21T05:42:08;102420.22;;;17.83;81.30
80184;BME280;69682;52.138;5.440;2023-08-21T05:44:35;102425.88;;;17.80;80.91
80184;BME280;69682;52.138;5.440;2023-08-21T05:47:01;102424.75;;;17.82;80.98
80184;BME280;69682;52.138;5.440;2023-08-21T05:49:28;102417.28;;;17.86;81.34
80184;BME280;69682;52.138;5.440;2023-08-21T05:51:56;102426.47;;;17.83;81.04
80184;BME280;69682;52.138;5.440;2023-08-21T05:54:25;102426.47;;;17.83;80.99
80184;BME280;69682;52.138;5.440;2023-08-21T05:56:52;102432.72;;;17.84;81.11
80184;BME280;69682;52.138;5.440;2023-08-21T05:59:30;102423.63;;;17.85;81.22
80184;BME280;69682;52.138;5.440;2023-08-21T06:01:57;102425.47;;;17.84;81.03
80184;BME280;69682;52.138;5.440;2023-08-21T06:04:24;102433.72;;;17.83;80.96
80184;BME280;69682;52.138;5.440;2023-08-21T06:06:51;102433.31;;;17.87;81.32
80184;BME280;69682;52.138;5.440;2023-08-21T06:09:17;102423.63;;;17.96;80.87
80184;BME280;69682;52.138;5.440;2023-08-21T06:11:44;102427.88;;;18.10;80.66
80184;BME280;69682;52.138;5.440;2023-08-21T06:14:10;102433.25;;;18.21;80.63
80184;BME280;69682;52.138;5.440;2023-08-21T06:16:37;102435.28;;;18.29;80.11
80184;BME280;69682;52.138;5.440;2023-08-21T06:19:04;102434.66;;;18.36;80.18
80184;BME280;69682;52.138;5.440;2023-08-21T06:21:30;102439.38;;;18.44;80.02
80184;BME280;69682;52.138;5.440;2023-08-21T06:23:57;102437.03;;;18.51;79.27
80184;BME280;69682;52.138;5.440;2023-08-21T06:26:24;102438.22;;;18.58;79.72
80184;BME280;69682;52.138;5.440;2023-08-21T06:28:51;102447.53;;;18.65;79.43
80184;BME280;69682;52.138;5.440;2023-08-21T06:31:17;102439.88;;;18.70;79.06
80184;BME280;69682;52.138;5.440;2023-08-21T06:33:44;102440.38;;;18.75;78.47
80184;BME280;69682;52.138;5.440;2023-08-21T06:36:11;102440.69;;;18.82;78.33
80184;BME280;69682;52.138;5.440;2023-08-21T06:38:37;102443.88;;;18.87;78.49
80184;BME280;69682;52.138;5.440;2023-08-21T06:41:04;102438.94;;;18.92;78.83
80184;BME280;69682;52.138;5.440;2023-08-21T06:43:37;102442.38;;;18.94;78.64
80184;BME280;69682;52.138;5.440;2023-08-21T06:46:07;102438.50;;;18.97;78.55
80184;BME280;69682;52.138;5.440;2023-08-21T06:48:39;102437.41;;;18.99;78.79
80184;BME280;69682;52.138;5.440;2023-08-21T06:51:09;102445.97;;;19.04;78.94
80184;BME280;69682;52.138;5.440;2023-08-21T06:53:36;102431.19;;;19.09;78.44
80184;BME280;69682;52.138;5.440;2023-08-21T06:56:03;102438.63;;;19.16;78.34
80184;BME280;69682;52.138;5.440;2023-08-21T06:58:30;102441.53;;;19.24;75.01
80184;BME280;69682;52.138;5.440;2023-08-21T07:00:56;102436.31;;;19.33;75.48
80184;BME280;69682;52.138;5.440;2023-08-21T07:03:23;102446.72;;;19.37;74.48
80184;BME280;69682;52.138;5.440;2023-08-21T07:05:54;102448.28;;;19.40;73.77
80184;BME280;69682;52.138;5.440;2023-08-21T07:08:23;102449.88;;;19.42;73.58
80184;BME280;69682;52.138;5.440;2023-08-21T07:10:50;102444.31;;;19.44;73.39
80184;BME280;69682;52.138;5.440;2023-08-21T07:13:16;102444.19;;;19.45;73.39
80184;BME280;69682;52.138;5.440;2023-08-21T07:15:43;102433.22;;;19.47;73.88
80184;BME280;69682;52.138;5.440;2023-08-21T07:18:10;102434.81;;;19.49;72.67
80184;BME280;69682;52.138;5.440;2023-08-21T07:20:36;102444.78;;;19.59;73.12
80184;BME280;69682;52.138;5.440;2023-08-21T07:23:03;102440.44;;;19.67;73.14
80184;BME280;69682;52.138;5.440;2023-08-21T07:25:29;102447.88;;;19.75;72.39
80184;BME280;69682;52.138;5.440;2023-08-21T07:27:56;102452.72;;;19.81;71.94
80184;BME280;69682;52.138;5.440;2023-08-21T07:30:23;102448.06;;;19.83;71.56
80184;BME280;69682;52.138;5.440;2023-08-21T07:32:49;102448.06;;;19.83;71.64
80184;BME280;69682;52.138;5.440;2023-08-21T07:35:16;102449.75;;;19.84;69.65
80184;BME280;69682;52.138;5.440;2023-08-21T07:37:43;102446.03;;;19.85;69.94
80184;BME280;69682;52.138;5.440;2023-08-21T07:40:10;102442.22;;;19.88;70.78
80184;BME280;69682;52.138;5.440;2023-08-21T07:42:37;102454.59;;;19.90;70.73
80184;BME280;69682;52.138;5.440;2023-08-21T07:45:05;102450.78;;;19.93;71.15
80184;BME280;69682;52.138;5.440;2023-08-21T07:47:32;102443.94;;;19.99;71.38
80184;BME280;69682;52.138;5.440;2023-08-21T07:50:02;102455.34;;;20.02;69.04
80184;BME280;69682;52.138;5.440;2023-08-21T07:52:29;102451.94;;;20.10;69.04
80184;BME280;69682;52.138;5.440;2023-08-21T07:54:55;102446.81;;;20.16;68.51
80184;BME280;69682;52.138;5.440;2023-08-21T07:57:22;102448.97;;;20.23;68.50
80184;BME280;69682;52.138;5.440;2023-08-21T07:59:48;102453.25;;;20.35;69.26
80184;BME280;69682;52.138;5.440;2023-08-21T08:02:15;102452.38;;;20.44;70.11
80184;BME280;69682;52.138;5.440;2023-08-21T08:04:43;102450.97;;;20.50;68.74
80184;BME280;69682;52.138;5.440;2023-08-21T08:07:10;102452.56;;;20.52;65.94
80184;BME280;69682;52.138;5.440;2023-08-21T08:09:36;102457.69;;;20.55;66.26
80184;BME280;69682;52.138;5.440;2023-08-21T08:12:03;102450.44;;;20.56;67.63
80184;BME280;69682;52.138;5.440;2023-08-21T08:14:33;102455.84;;;20.56;68.06
80184;BME280;69682;52.138;5.440;2023-08-21T08:17:00;102457.13;;;20.61;67.66
80184;BME280;69682;52.138;5.440;2023-08-21T08:19:27;102455.00;;;20.65;66.84
80184;BME280;69682;52.138;5.440;2023-08-21T08:21:54;102469.53;;;20.74;65.38
80184;BME280;69682;52.138;5.440;2023-08-21T08:24:21;102472.94;;;20.76;64.54
80184;BME280;69682;52.138;5.440;2023-08-21T08:26:47;102466.84;;;20.74;65.03
80184;BME280;69682;52.138;5.440;2023-08-21T08:29:14;102464.97;;;20.74;65.01
80184;BME280;69682;52.138;5.440;2023-08-21T08:31:40;102457.41;;;20.78;65.47
80184;BME280;69682;52.138;5.440;2023-08-21T08:34:07;102454.53;;;20.89;64.52
80184;BME280;69682;52.138;5.440;2023-08-21T08:36:35;102454.97;;;20.94;64.97
80184;BME280;69682;52.138;5.440;2023-08-21T08:39:01;102462.22;;;21.03;64.06
80184;BME280;69682;52.138;5.440;2023-08-21T08:41:43;102458.50;;;21.04;64.03
80184;BME280;69682;52.138;5.440;2023-08-21T08:44:13;102467.75;;;21.12;64.24
80184;BME280;69682;52.138;5.440;2023-08-21T08:46:41;102464.88;;;21.23;63.67
80184;BME280;69682;52.138;5.440;2023-08-21T08:49:08;102469.88;;;21.18;63.30
80184;BME280;69682;52.138;5.440;2023-08-21T08:51:34;102470.44;;;21.21;63.81
80184;BME280;69682;52.138;5.440;2023-08-21T08:54:01;102474.56;;;21.25;63.33
80184;BME280;69682;52.138;5.440;2023-08-21T08:56:28;102470.28;;;21.23;63.54
80184;BME280;69682;52.138;5.440;2023-08-21T08:58:55;102471.41;;;21.30;63.05
80184;BME280;69682;52.138;5.440;2023-08-21T09:01:21;102468.41;;;21.43;63.10
80184;BME280;69682;52.138;5.440;2023-08-21T09:03:48;102459.06;;;21.55;63.40
80184;BME280;69682;52.138;5.440;2023-08-21T09:06:16;102444.91;;;21.61;62.58
80184;BME280;69682;52.138;5.440;2023-08-21T09:08:56;102447.72;;;21.69;63.21
80184;BME280;69682;52.138;5.440;2023-08-21T09:11:23;102445.66;;;21.81;63.09
80184;BME280;69682;52.138;5.440;2023-08-21T09:13:52;102446.50;;;21.82;63.26
80184;BME280;69682;52.138;5.440;2023-08-21T09:16:19;102449.19;;;21.91;61.53
80184;BME280;69682;52.138;5.440;2023-08-21T09:18:50;102448.09;;;22.02;60.92
80184;BME280;69682;52.138;5.440;2023-08-21T09:21:21;102443.53;;;22.03;58.49
80184;BME280;69682;52.138;5.440;2023-08-21T09:23:51;102446.63;;;22.08;59.44
80184;BME280;69682;52.138;5.440;2023-08-21T09:26:22;102441.31;;;22.16;58.85
80184;BME280;69682;52.138;5.440;2023-08-21T09:28:51;102442.66;;;22.30;58.36
80184;BME280;69682;52.138;5.440;2023-08-21T09:31:30;102449.94;;;22.47;59.30
80184;BME280;69682;52.138;5.440;2023-08-21T09:33:59;102443.03;;;22.53;56.97
80184;BME280;69682;52.138;5.440;2023-08-21T09:36:27;102449.94;;;22.65;57.10
80184;BME280;69682;52.138;5.440;2023-08-21T09:38:55;102444.34;;;22.66;57.32
80184;BME280;69682;52.138;5.440;2023-08-21T09:41:23;102441.84;;;22.73;57.45
80184;BME280;69682;52.138;5.440;2023-08-21T09:43:50;102433.44;;;22.84;56.70
80184;BME280;69682;52.138;5.440;2023-08-21T09:46:23;102441.41;;;23.04;56.82
80184;BME280;69682;52.138;5.440;2023-08-21T09:48:52;102439.09;;;23.17;56.46
80184;BME280;69682;52.138;5.440;2023-08-21T09:51:19;102440.38;;;23.31;55.71
80184;BME280;69682;52.138;5.440;2023-08-21T09:53:46;102428.53;;;23.40;54.13
80184;BME280;69682;52.138;5.440;2023-08-21T09:56:14;102432.09;;;23.41;53.59
80184;BME280;69682;52.138;5.440;2023-08-21T09:58:41;102433.31;;;23.46;52.66
80184;BME280;69682;52.138;5.440;2023-08-21T10:01:08;102430.78;;;23.45;52.15
80184;BME280;69682;52.138;5.440;2023-08-21T10:03:41;102430.63;;;23.54;51.20
80184;BME280;69682;52.138;5.440;2023-08-21T10:06:09;102422.13;;;23.57;52.31
80184;BME280;69682;52.138;5.440;2023-08-21T10:08:38;102424.63;;;23.77;51.74
80184;BME280;69682;52.138;5.440;2023-08-21T10:11:07;102421.91;;;23.85;52.11
80184;BME280;69682;52.138;5.440;2023-08-21T10:13:38;102427.19;;;23.87;53.07
80184;BME280;69682;52.138;5.440;2023-08-21T10:16:05;102428.78;;;23.97;52.72
80184;BME280;69682;52.138;5.440;2023-08-21T10:18:36;102417.19;;;24.12;52.50
80184;BME280;69682;52.138;5.440;2023-08-21T10:21:14;102406.84;;;24.07;53.05
80184;BME280;69682;52.138;5.440;2023-08-21T10:23:41;102415.69;;;24.25;53.23
80184;BME280;69682;52.138;5.440;2023-08-21T10:26:11;102413.34;;;24.39;51.50
80184;BME280;69682;52.138;5.440;2023-08-21T10:33:53;102419.50;;;24.57;52.56
80184;BME280;69682;52.138;5.440;2023-08-21T10:41:39;102422.31;;;25.05;49.75
80184;BME280;69682;52.138;5.440;2023-08-21T10:44:06;102420.09;;;25.17;49.80
80184;BME280;69682;52.138;5.440;2023-08-21T10:46:50;102424.00;;;25.22;50.96
80184;BME280;69682;52.138;5.440;2023-08-21T10:49:17;102427.84;;;25.44;46.78
80184;BME280;69682;52.138;5.440;2023-08-21T10:51:44;102426.69;;;25.38;46.40
80184;BME280;69682;52.138;5.440;2023-08-21T10:54:12;102431.13;;;25.31;47.11
80184;BME280;69682;52.138;5.440;2023-08-21T10:56:39;102417.28;;;25.41;48.34
80184;BME280;69682;52.138;5.440;2023-08-21T10:59:05;102418.63;;;25.53;45.95
80184;BME280;69682;52.138;5.440;2023-08-21T11:01:44;102421.59;;;25.35;48.65
80184;BME280;69682;52.138;5.440;2023-08-21T11:04:12;102403.66;;;25.72;44.00
80184;BME280;69682;52.138;5.440;2023-08-21T11:06:39;102412.53;;;25.74;44.36
80184;BME280;69682;52.138;5.440;2023-08-21T11:09:12;102409.66;;;25.68;48.64
80184;BME280;69682;52.138;5.440;2023-08-21T11:11:38;102415.56;;;25.79;43.50
80184;BME280;69682;52.138;5.440;2023-08-21T11:14:05;102420.28;;;25.63;44.00
80184;BME280;69682;52.138;5.440;2023-08-21T11:16:31;102414.03;;;25.85;43.55
80184;BME280;69682;52.138;5.440;2023-08-21T11:19:03;102413.94;;;26.01;43.64
80184;BME280;69682;52.138;5.440;2023-08-21T11:21:30;102406.22;;;26.05;43.86
80184;BME280;69682;52.138;5.440;2023-08-21T11:23:57;102404.03;;;26.23;43.93
80184;BME280;69682;52.138;5.440;2023-08-21T11:26:24;102407.81;;;26.22;43.02
80184;BME280;69682;52.138;5.440;2023-08-21T11:28:51;102403.75;;;26.18;45.59
80184;BME280;69682;52.138;5.440;2023-08-21T11:31:17;102400.03;;;26.34;42.42
80184;BME280;69682;52.138;5.440;2023-08-21T11:33:50;102411.75;;;26.43;42.82
80184;BME280;69682;52.138;5.440;2023-08-21T11:36:18;102406.75;;;26.46;43.06
80184;BME280;69682;52.138;5.440;2023-08-21T11:38:58;102404.22;;;26.68;44.29
80184;BME280;69682;52.138;5.440;2023-08-21T11:41:25;102394.63;;;27.02;42.49
80184;BME280;69682;52.138;5.440;2023-08-21T11:43:52;102397.81;;;26.90;40.78
80184;BME280;69682;52.138;5.440;2023-08-21T11:46:19;102401.13;;;26.86;42.05
80184;BME280;69682;52.138;5.440;2023-08-21T11:48:45;102392.56;;;27.04;42.62
80184;BME280;69682;52.138;5.440;2023-08-21T11:51:12;102401.19;;;27.15;41.83
80184;BME280;69682;52.138;5.440;2023-08-21T11:53:40;102391.88;;;27.46;40.65
80184;BME280;69682;52.138;5.440;2023-08-21T11:56:12;102390.78;;;27.26;40.21
80184;BME280;69682;52.138;5.440;2023-08-21T11:58:40;102384.00;;;27.22;40.23
80184;BME280;69682;52.138;5.440;2023-08-21T12:01:06;102377.28;;;26.80;39.65
80184;BME280;69682;52.138;5.440;2023-08-21T12:03:37;102388.22;;;26.94;40.79
80184;BME280;69682;52.138;5.440;2023-08-21T12:06:09;102389.75;;;27.27;39.85
80184;BME280;69682;52.138;5.440;2023-08-21T12:08:36;102383.38;;;27.11;39.84
80184;BME280;69682;52.138;5.440;2023-08-21T12:11:03;102385.59;;;27.16;42.29
80184;BME280;69682;52.138;5.440;2023-08-21T12:13:30;102389.47;;;27.36;39.88
80184;BME280;69682;52.138;5.440;2023-08-21T12:16:00;102381.31;;;27.43;40.88
80184;BME280;69682;52.138;5.440;2023-08-21T12:18:28;102385.50;;;27.24;40.03
80184;BME280;69682;52.138;5.440;2023-08-21T12:20:55;102381.81;;;27.32;39.71
80184;BME280;69682;52.138;5.440;2023-08-21T12:23:21;102383.00;;;27.44;40.11
80184;BME280;69682;52.138;5.440;2023-08-21T12:25:48;102377.38;;;27.31;39.21
80184;BME280;69682;52.138;5.440;2023-08-21T12:28:15;102379.44;;;27.29;39.21
80184;BME280;69682;52.138;5.440;2023-08-21T12:30:41;102379.19;;;27.38;39.92
80184;BME280;69682;52.138;5.440;2023-08-21T12:33:08;102373.94;;;27.44;39.27
80184;BME280;69682;52.138;5.440;2023-08-21T12:35:49;102376.53;;;27.30;40.86
80184;BME280;69682;52.138;5.440;2023-08-21T12:38:15;102380.78;;;27.03;40.86
80184;BME280;69682;52.138;5.440;2023-08-21T12:40:42;102375.09;;;27.05;40.60
80184;BME280;69682;52.138;5.440;2023-08-21T12:43:08;102376.22;;;26.81;40.64
80184;BME280;69682;52.138;5.440;2023-08-21T12:45:36;102374.88;;;26.77;41.43
80184;BME280;69682;52.138;5.440;2023-08-21T12:48:03;102365.75;;;26.69;41.78
80184;BME280;69682;52.138;5.440;2023-08-21T12:50:31;102369.16;;;26.48;43.03
80184;BME280;69682;52.138;5.440;2023-08-21T12:52:57;102364.13;;;26.60;43.55
80184;BME280;69682;52.138;5.440;2023-08-21T12:55:24;102358.31;;;26.78;40.68
80184;BME280;69682;52.138;5.440;2023-08-21T12:57:50;102371.03;;;26.71;42.00
80184;BME280;69682;52.138;5.440;2023-08-21T13:00:17;102372.41;;;26.52;42.77
80184;BME280;69682;52.138;5.440;2023-08-21T13:02:44;102370.06;;;26.41;43.31